BGBWCYYR

Guest
Details From BGBW - Narsarsuaq
To CYYR - Goose Bay
Flight Number -
Tags decoded
Created
Modified
Stats Distance 707 nm / 1,310 km
Max Altitude 0 ft / 0 m
Waypoints 5
Social Downloads 3
Likes 0
Share VATSIM

Download

Looking for another format? Having issues loading an existing format? Contact us
Advertisement - Login to hide

Notes

Requested: BGBW NA SI CUDDY HO KEMSI CYYR Unmatched points: KEMSI

Route

BGBW NA SI HO CYYR

ID Type Via Altitude Latitude Longitude Leg Dist Tot Dist Heading (true) Name
O BGBW APT - 0 ft / 0 m 61.16052˚ -45.42598˚ - 0 nm - Narsarsuaq
NA NDB - 0 ft / 0 m 61.17074˚ -45.41295˚ 0 nm 0 nm 32° / 32° NARSARSUAQ NDB
SI NDB - 0 ft / 0 m 60.68167˚ -46.59611˚ 45 nm 46 nm 230° / 229° SIMIUTAQ NDB
HO NDB - 0 ft / 0 m 55.45750˚ -60.20917˚ 532 nm 578 nm 240° / 228° HOPEDALE NDB
O CYYR APT - 0 ft / 0 m 53.31882˚ -60.42389˚ 128 nm 707 nm 183° / 183° Goose Bay

Altitude Profile

Advertisement - Login to hide

Weather


0- 5 10 15 20 25 30 35+ Temperature / ° C

Clouds and Precipitation
Forecast for 2017-12-11 00:00 UTC. Updated an hour ago

Ground ~20,000 ft ~40,000 ft Winds

BGBW

Details ICAO BGBW (UAK)
Name Narsarsuaq
Region Greenland
Timezone America/Godthab (UTC-3.0)
Stats Elevation 112 ft / 34 m (AMSL)
Location 61.160516° -45.425976°
Runways 1
Magnetic Variation 22.908° W

METAR

BGBW 102350Z AUTO 25002KT 9999NDV FEW007/// BKN210/// M01/M02 Q1002

Decode

TAF

Not found

Departure Runways

ID Width Length Bearing (true) Bearing (mag) Surface Threshold Offset Overrun Length
07 148 ft / 45 m 5,921 ft / 1,805 m 40.57° 63.48° Concrete 0 ft / 0 m 0 ft / 0 m
25 148 ft / 45 m 5,921 ft / 1,805 m 220.58° 243.49° Concrete 0 ft / 0 m 279 ft / 85 m

CYYR

Details ICAO CYYR (YYR)
Name Goose Bay
Region Canada
Timezone America/Goose_Bay (UTC-4.0)
Stats Elevation 160 ft / 49 m (AMSL)
Location 53.318820° -60.423890°
Runways 2
Magnetic Variation 20.965° W

METAR

CYYR 110000Z 32016G24KT 6SM -SN DRSN SCT026 OVC041 M08/M11 A2921 RMK SC3SC5 /S07/ SLP895

Decode

TAF

TAF AMD CYYR 110007Z 1100/1124 32015G25KT 3SM -SN OVC020 TEMPO 1100/1107 6SM -SN OVC025 BECMG 1100/1102 27010KT FM110700 24010KT P6SM -SN OVC030 FM110900 24010KT P6SM BKN060 FM111400 25015G25KT P6SM FEW030 BECMG 1120/1122 24010KT RMK NXT FCST BY 110600Z

Decode

Destination Runways

ID Width Length Bearing (true) Bearing (mag) Surface Threshold Offset Overrun Length
08 209 ft / 64 m 11,055 ft / 3,369 m 54.70° 75.67° Asphalt 0 ft / 0 m 1,000 ft / 305 m
16 200 ft / 61 m 9,515 ft / 2,900 m 132.96° 153.93° Asphalt 0 ft / 0 m 0 ft / 0 m
26 209 ft / 64 m 11,055 ft / 3,369 m 234.73° 255.70° Asphalt 0 ft / 0 m 1,000 ft / 305 m
34 200 ft / 61 m 9,515 ft / 2,900 m 312.99° 333.96° Asphalt 0 ft / 0 m 500 ft / 152 m

Popular Alternatives